This is the latest recevied weather packets stored in our database for station/object K3MV-13. If no packets are shown the sender has not sent any weather packets the latest 10 day(s).
| Time | Temp. | Humidity | Pressure | Rain* | Wind** | Luminosity | Snow |
|---|---|---|---|---|---|---|---|
| 1777870430 | 2.78° C | 78% | 1014.7 hPa | 0 mm | - | 0 W/m² | - |
| 1777870127 | 2.78° C | 78% | 1014.6 hPa | 0 mm | - | 0 W/m² | - |
| 1777869824 | 2.78° C | 78% | 1014.6 hPa | 0 mm | - | 0 W/m² | - |
| 1777869522 | 2.78° C | 78% | 1014.6 hPa | 0 mm | - | 0 W/m² | - |
| 1777869218 | 2.78° C | 79% | 1014.4 hPa | 0 mm | - | 0 W/m² | - |
| 1777868915 | 2.78° C | 79% | 1014.4 hPa | 0 mm | - | 0 W/m² | - |
| 1777868612 | 2.78° C | 79% | 1014.7 hPa | 0 mm | - | 0 W/m² | - |
| 1777868308 | 2.78° C | 78% | 1014.4 hPa | 0 mm | - | 0 W/m² | - |
| 1777868004 | 2.78° C | 76% | 1014.4 hPa | 0 mm | - | 0 W/m² | - |
| 1777867701 | 2.78° C | 76% | 1014.4 hPa | 0 mm | - | 0 W/m² | - |
| 1777867399 | 3.33° C | 75% | 1014.6 hPa | 0 mm | - | 0 W/m² | - |
| 1777867094 | 3.89° C | 73% | 1014.7 hPa | 0 mm | - | 0 W/m² | - |
| 1777866792 | 3.89° C | 73% | 1014.8 hPa | 0 mm | - | 0 W/m² | - |
| 1777866489 | 3.89° C | 73% | 1014.6 hPa | 0 mm | - | 0 W/m² | - |
| 1777866186 | 3.33° C | 73% | 1014.7 hPa | 0 mm | - | 0 W/m² | - |
| 1777865883 | 3.89° C | 72% | 1014.7 hPa | 0 mm | - | 0 W/m² | - |
| 1777865581 | 3.89° C | 71% | 1014.8 hPa | 0 mm | - | 0 W/m² | - |
| 1777865277 | 3.89° C | 71% | 1014.7 hPa | 0 mm | - | 0 W/m² | - |
| 1777864975 | 4.44° C | 70% | 1014.6 hPa | 0 mm | - | 0 W/m² | - |
| 1777864671 | 5° C | 66% | 1014.8 hPa | 0 mm | - | 0 W/m² | - |
| 1777864369 | 5° C | 65% | 1014.8 hPa | 0 mm | - | 0 W/m² | - |
| 1777864064 | 4.44° C | 67% | 1014.8 hPa | 0 mm | - | 0 W/m² | - |
| 1777863762 | 4.44° C | 68% | 1014.7 hPa | 0 mm | - | 0 W/m² | - |
| 1777863458 | 4.44° C | 68% | 1014.7 hPa | 0 mm | - | 0 W/m² | - |
| 1777863155 | 3.89° C | 70% | 1014.8 hPa | 0 mm | - | 0 W/m² | - |
* Rain latest hour (hover to see other rain measurements)
** Current wind speed in m/s (hover to see current wind gust speed)